createdAt,value
2022-09-20T00:00:11.690Z,7.90
2022-09-20T00:01:16.505Z,8.00
2022-09-20T00:02:18.079Z,8.00
2022-09-20T00:03:19.471Z,8.00
2022-09-20T00:04:20.866Z,8.00
2022-09-20T00:05:22.352Z,7.90
2022-09-20T00:06:29.771Z,7.90
2022-09-20T00:07:31.477Z,7.90
2022-09-20T00:08:33.050Z,7.90
2022-09-20T00:09:34.730Z,7.90
2022-09-20T00:10:39.492Z,7.80
2022-09-20T00:11:40.880Z,7.80
2022-09-20T00:12:42.250Z,7.80
2022-09-20T00:13:45.651Z,7.80
2022-09-20T00:14:47.095Z,7.90
2022-09-20T00:15:48.561Z,7.80
2022-09-20T00:16:50.073Z,7.80
2022-09-20T00:17:51.539Z,7.70
2022-09-20T00:18:55.223Z,7.70
2022-09-20T00:19:56.941Z,7.70
2022-09-20T00:20:58.605Z,7.80
2022-09-20T00:22:00.218Z,7.80
2022-09-20T00:23:02.044Z,7.90
2022-09-20T00:24:04.256Z,7.80
2022-09-20T00:25:06.251Z,7.80
2022-09-20T00:26:07.685Z,7.70
2022-09-20T00:27:09.078Z,7.70
2022-09-20T00:28:11.168Z,7.70
2022-09-20T00:29:13.763Z,7.70
2022-09-20T00:30:15.899Z,7.70
2022-09-20T00:31:18.069Z,7.70
2022-09-20T00:32:19.745Z,7.70
2022-09-20T00:33:22.903Z,7.80
2022-09-20T00:34:43.064Z,7.80
2022-09-20T00:35:45.753Z,7.70
2022-09-20T00:36:47.267Z,7.70
2022-09-20T00:37:48.660Z,7.70
2022-09-20T00:38:55.910Z,7.70
2022-09-20T00:39:57.580Z,7.70
2022-09-20T00:40:58.994Z,7.70
2022-09-20T00:42:00.495Z,7.70
2022-09-20T00:43:01.888Z,7.70
2022-09-20T00:44:23.333Z,7.70
2022-09-20T00:45:27.005Z,7.70
2022-09-20T00:46:38.051Z,7.70
2022-09-20T00:48:09.682Z,7.80
2022-09-20T00:49:16.224Z,7.80
2022-09-20T00:50:39.321Z,7.80
2022-09-20T00:51:45.280Z,7.80
2022-09-20T00:52:49.832Z,7.80
2022-09-20T00:53:52.795Z,7.80
2022-09-20T00:54:54.818Z,7.80
2022-09-20T00:56:08.764Z,7.70
2022-09-20T00:57:10.852Z,7.70
2022-09-20T00:58:13.451Z,7.70
2022-09-20T00:59:25.467Z,7.70
2022-09-20T01:00:27.569Z,7.70
2022-09-20T01:01:29.266Z,7.70
2022-09-20T01:02:33.375Z,7.80
2022-09-20T01:03:38.089Z,7.70
2022-09-20T01:04:43.023Z,7.80
2022-09-20T01:05:45.212Z,7.80
2022-09-20T01:06:47.819Z,7.70
2022-09-20T01:07:51.161Z,7.70
2022-09-20T01:08:55.148Z,7.70
2022-09-20T01:09:56.601Z,7.70
2022-09-20T01:10:58.280Z,7.70
2022-09-20T01:12:03.844Z,7.80
2022-09-20T01:13:05.838Z,7.80
2022-09-20T01:14:07.656Z,7.70
2022-09-20T01:15:10.379Z,7.70
2022-09-20T01:16:15.531Z,7.70
2022-09-20T01:17:19.351Z,7.70
2022-09-20T01:18:22.161Z,7.70
2022-09-20T01:19:32.578Z,7.60
2022-09-20T01:20:38.859Z,7.70
2022-09-20T01:21:40.675Z,7.70
2022-09-20T01:23:22.731Z,7.70
2022-09-20T01:24:40.727Z,7.70
2022-09-20T01:26:11.751Z,7.70
2022-09-20T01:27:26.706Z,7.70
2022-09-20T01:28:30.159Z,7.70
2022-09-20T01:29:50.384Z,7.70
2022-09-20T01:30:58.027Z,7.70
2022-09-20T01:32:03.376Z,7.70
2022-09-20T01:33:14.110Z,7.60
2022-09-20T01:34:21.281Z,7.70
2022-09-20T01:35:41.407Z,7.60
2022-09-20T01:37:00.164Z,7.60
2022-09-20T01:38:27.656Z,7.60
2022-09-20T01:39:34.820Z,7.60
2022-09-20T01:40:48.181Z,7.60
2022-09-20T01:41:58.964Z,7.50
2022-09-20T01:43:20.635Z,7.50
2022-09-20T01:44:46.226Z,7.50
2022-09-20T01:45:49.936Z,7.50
2022-09-20T01:47:16.147Z,7.50
2022-09-20T01:48:37.568Z,7.40
2022-09-20T01:49:52.086Z,7.50
2022-09-20T01:51:24.863Z,7.60
2022-09-20T01:52:59.580Z,7.50
2022-09-20T01:54:27.824Z,7.60
2022-09-20T01:55:59.661Z,7.60
2022-09-20T01:57:36.938Z,7.50
2022-09-20T01:59:19.826Z,7.60
2022-09-20T02:00:58.090Z,7.50
2022-09-20T02:02:08.206Z,7.50
2022-09-20T02:03:47.314Z,7.50
2022-09-20T02:05:10.343Z,7.40
2022-09-20T02:06:37.447Z,7.50
2022-09-20T02:08:18.492Z,7.50
2022-09-20T02:09:48.985Z,7.50
2022-09-20T02:11:11.109Z,7.50
2022-09-20T02:12:33.551Z,7.50
2022-09-20T02:13:40.797Z,7.40
2022-09-20T02:14:57.001Z,7.50
2022-09-20T02:16:42.287Z,7.40
2022-09-20T02:17:55.718Z,7.40
2022-09-20T02:19:21.689Z,7.40
2022-09-20T02:20:33.747Z,7.40
2022-09-20T02:21:52.834Z,7.40
2022-09-20T02:23:09.362Z,7.40
2022-09-20T02:24:36.083Z,7.40
2022-09-20T02:25:46.521Z,7.40
2022-09-20T02:27:08.778Z,7.40
2022-09-20T02:28:31.921Z,7.40
2022-09-20T02:29:43.650Z,7.40
2022-09-20T02:30:59.984Z,7.40
2022-09-20T02:32:16.269Z,7.30
2022-09-20T02:33:20.472Z,7.40
2022-09-20T02:34:34.412Z,7.40
2022-09-20T02:35:38.539Z,7.40
2022-09-20T02:36:48.908Z,7.40
2022-09-20T02:37:58.956Z,7.30
2022-09-20T02:39:15.504Z,7.40
2022-09-20T02:40:25.535Z,7.40
2022-09-20T02:41:42.305Z,7.40
2022-09-20T02:43:21.789Z,7.40
2022-09-20T02:44:34.417Z,7.30
2022-09-20T02:45:47.961Z,7.30
2022-09-20T02:47:21.499Z,7.30
2022-09-20T02:48:34.220Z,7.30
2022-09-20T02:49:48.161Z,7.30
2022-09-20T02:51:17.405Z,7.20
2022-09-20T02:52:49.379Z,7.20
2022-09-20T02:54:24.749Z,7.20
2022-09-20T02:55:58.234Z,7.20
2022-09-20T02:57:18.644Z,7.20
2022-09-20T02:58:44.377Z,7.20
2022-09-20T02:59:48.746Z,7.30
2022-09-20T03:01:02.924Z,7.30
2022-09-20T03:02:14.083Z,7.30
2022-09-20T03:03:50.977Z,7.30
2022-09-20T03:05:17.081Z,7.20
2022-09-20T03:06:44.146Z,7.20
2022-09-20T03:08:12.711Z,7.10
2022-09-20T03:09:38.482Z,7.20
2022-09-20T03:10:45.032Z,7.30
2022-09-20T03:12:24.898Z,7.30
2022-09-20T03:13:38.779Z,7.30
2022-09-20T03:15:08.139Z,7.30
2022-09-20T03:16:31.755Z,7.20
2022-09-20T03:17:51.958Z,7.20
2022-09-20T03:19:36.862Z,7.10
2022-09-20T03:20:40.986Z,7.10
2022-09-20T03:22:08.539Z,7.10
2022-09-20T03:23:30.942Z,7.10
2022-09-20T03:24:50.211Z,7.20
2022-09-20T03:26:09.042Z,7.10
2022-09-20T03:27:26.094Z,7.10
2022-09-20T03:28:48.837Z,7.10
2022-09-20T03:30:06.289Z,7.10
2022-09-20T03:31:23.181Z,7.30
2022-09-20T03:33:02.382Z,7.20
2022-09-20T03:34:12.616Z,7.20
2022-09-20T03:35:35.497Z,7.10
2022-09-20T03:36:54.244Z,7.10
2022-09-20T03:38:33.335Z,7.10
2022-09-20T03:40:02.480Z,7.10
2022-09-20T03:41:32.859Z,7.10
2022-09-20T03:42:41.910Z,7.10
2022-09-20T03:43:52.190Z,7.10
2022-09-20T03:45:26.485Z,7.20
2022-09-20T03:46:29.682Z,7.20
2022-09-20T03:47:43.456Z,7.10
2022-09-20T03:48:57.113Z,7.10
2022-09-20T03:50:34.185Z,7.20
2022-09-20T03:51:41.639Z,7.10
2022-09-20T03:53:20.436Z,7.10
2022-09-20T03:54:27.386Z,7.10
2022-09-20T03:55:38.787Z,7.00
2022-09-20T03:56:59.193Z,7.00
2022-09-20T03:58:08.886Z,7.10
2022-09-20T03:59:50.830Z,7.10
2022-09-20T04:01:15.648Z,7.00
2022-09-20T04:02:58.166Z,7.00
2022-09-20T04:04:50.209Z,7.00
2022-09-20T04:06:17.638Z,7.00
2022-09-20T04:07:24.662Z,7.00
2022-09-20T04:08:33.314Z,6.90
2022-09-20T04:09:39.200Z,7.00
2022-09-20T04:11:16.634Z,7.00
2022-09-20T04:12:27.102Z,7.00
2022-09-20T04:13:34.852Z,7.00
2022-09-20T04:15:06.939Z,7.00
2022-09-20T04:16:32.471Z,7.00
2022-09-20T04:17:46.678Z,7.20
2022-09-20T04:19:14.429Z,7.10
2022-09-20T04:20:21.133Z,7.10
2022-09-20T04:21:38.479Z,7.00
2022-09-20T04:22:43.227Z,7.00
2022-09-20T04:24:43.433Z,6.90
2022-09-20T04:25:48.368Z,7.00
2022-09-20T04:27:00.289Z,7.00
2022-09-20T04:28:41.056Z,7.00
2022-09-20T04:30:05.890Z,6.90
2022-09-20T04:31:44.778Z,6.90
2022-09-20T04:33:04.091Z,7.00
2022-09-20T04:34:16.276Z,6.90
2022-09-20T04:36:06.796Z,6.90
2022-09-20T04:37:33.498Z,6.90
2022-09-20T04:38:35.965Z,6.90
2022-09-20T04:39:50.980Z,6.80
2022-09-20T04:41:05.554Z,6.90
2022-09-20T04:42:28.767Z,6.90
2022-09-20T04:43:38.743Z,6.80
2022-09-20T04:44:58.023Z,6.90
2022-09-20T04:46:21.256Z,6.90
2022-09-20T04:47:42.420Z,6.90
2022-09-20T04:49:23.022Z,6.90
2022-09-20T04:50:39.731Z,6.90
2022-09-20T04:51:54.291Z,6.80
2022-09-20T04:53:32.942Z,6.80
2022-09-20T04:54:59.443Z,6.80
2022-09-20T04:56:19.246Z,6.90
2022-09-20T04:58:08.770Z,6.90
2022-09-20T04:59:23.003Z,6.90
2022-09-20T05:00:33.210Z,6.80
2022-09-20T05:01:48.253Z,6.80
2022-09-20T05:03:10.527Z,6.70
2022-09-20T05:04:31.919Z,6.80
2022-09-20T05:05:36.692Z,6.70
2022-09-20T05:07:16.944Z,6.80
2022-09-20T05:08:55.368Z,6.90
2022-09-20T05:10:46.180Z,6.80
2022-09-20T05:12:02.951Z,6.70
2022-09-20T05:13:22.082Z,6.70
2022-09-20T05:14:59.557Z,6.70
2022-09-20T05:16:43.994Z,6.70
2022-09-20T05:18:07.192Z,6.80
2022-09-20T05:19:16.799Z,6.70
2022-09-20T05:21:08.117Z,6.70
2022-09-20T05:22:25.452Z,6.70
2022-09-20T05:23:51.858Z,6.70
2022-09-20T05:25:02.029Z,6.70
2022-09-20T05:26:24.769Z,6.60
2022-09-20T05:27:50.403Z,6.70
2022-09-20T05:29:45.942Z,6.80
2022-09-20T05:30:56.037Z,6.80
2022-09-20T05:32:18.378Z,6.80
2022-09-20T05:33:20.602Z,6.80
2022-09-20T05:34:44.635Z,6.70
2022-09-20T05:36:07.377Z,6.70
2022-09-20T05:37:08.984Z,6.70
2022-09-20T05:38:42.830Z,6.70
2022-09-20T05:40:04.656Z,6.80
2022-09-20T05:41:46.214Z,6.80
2022-09-20T05:43:11.413Z,6.90
2022-09-20T05:44:31.232Z,6.90
2022-09-20T05:45:48.347Z,6.80
2022-09-20T05:47:27.629Z,6.80
2022-09-20T05:48:46.982Z,6.80
2022-09-20T05:50:09.528Z,6.80
2022-09-20T05:51:27.857Z,6.80
2022-09-20T05:52:47.134Z,6.80
2022-09-20T05:54:27.701Z,6.80
2022-09-20T05:55:36.336Z,6.80
2022-09-20T05:56:55.696Z,6.80
2022-09-20T05:58:32.099Z,6.90
2022-09-20T05:59:51.701Z,6.90
2022-09-20T06:01:00.888Z,6.90
2022-09-20T06:02:39.928Z,6.80
2022-09-20T06:03:54.346Z,6.90
2022-09-20T06:05:14.224Z,6.90
2022-09-20T06:06:45.699Z,6.90
2022-09-20T06:07:58.868Z,6.90
2022-09-20T06:09:10.953Z,6.90
2022-09-20T06:10:21.044Z,7.00
2022-09-20T06:11:47.016Z,7.00
2022-09-20T06:13:20.600Z,6.90
2022-09-20T06:14:30.569Z,7.00
2022-09-20T06:16:02.230Z,7.00
2022-09-20T06:17:21.536Z,7.00
2022-09-20T06:18:31.528Z,7.10
2022-09-20T06:20:01.607Z,7.10
2022-09-20T06:21:45.765Z,7.10
2022-09-20T06:22:54.401Z,7.10
2022-09-20T06:24:04.785Z,7.20
2022-09-20T06:25:08.977Z,7.20
2022-09-20T06:26:19.954Z,7.30
2022-09-20T06:27:27.094Z,7.20
2022-09-20T06:28:37.009Z,7.30
2022-09-20T06:29:44.000Z,7.30
2022-09-20T06:30:49.392Z,7.30
2022-09-20T06:31:53.537Z,7.30
2022-09-20T06:33:20.402Z,7.40
2022-09-20T06:34:22.687Z,7.40
2022-09-20T06:35:30.918Z,7.40
2022-09-20T06:36:53.183Z,7.50
2022-09-20T06:38:42.307Z,7.60
2022-09-20T06:40:14.714Z,7.60
2022-09-20T06:41:28.581Z,7.60
2022-09-20T06:42:30.881Z,7.70
2022-09-20T06:43:32.249Z,7.70
2022-09-20T06:44:34.060Z,7.70
2022-09-20T06:45:36.039Z,7.80
2022-09-20T06:46:38.590Z,7.90
2022-09-20T06:47:40.494Z,7.90
2022-09-20T06:48:42.165Z,8.00
2022-09-20T06:49:46.756Z,8.10
2022-09-20T06:50:48.364Z,8.10
2022-09-20T06:51:50.765Z,8.10
2022-09-20T06:52:53.601Z,8.10
2022-09-20T06:53:57.340Z,8.20
2022-09-20T06:54:58.817Z,8.20
2022-09-20T06:56:01.043Z,8.30
2022-09-20T06:57:05.975Z,8.30
2022-09-20T06:58:08.886Z,8.30
2022-09-20T06:59:12.830Z,8.40
2022-09-20T07:00:15.869Z,8.40
2022-09-20T07:01:29.061Z,8.40
2022-09-20T07:02:31.753Z,8.50
2022-09-20T07:03:33.517Z,8.60
2022-09-20T07:04:35.663Z,8.70
2022-09-20T07:05:37.313Z,8.70
2022-09-20T07:06:38.701Z,8.80
2022-09-20T07:07:40.372Z,8.80
2022-09-20T07:08:43.455Z,8.80
2022-09-20T07:09:45.439Z,8.90
2022-09-20T07:10:47.049Z,8.90
2022-09-20T07:11:48.488Z,8.90
2022-09-20T07:12:50.031Z,9.00
2022-09-20T07:13:54.102Z,9.00
2022-09-20T07:14:55.512Z,9.10
2022-09-20T07:16:04.680Z,9.10
2022-09-20T07:17:06.607Z,9.20
2022-09-20T07:18:08.222Z,9.30
2022-09-20T07:19:09.656Z,9.30
2022-09-20T07:20:11.435Z,9.40
2022-09-20T07:21:15.020Z,9.40
2022-09-20T07:22:16.430Z,9.40
2022-09-20T07:23:18.497Z,9.50
2022-09-20T07:24:20.227Z,9.60
2022-09-20T07:25:21.760Z,9.70
2022-09-20T07:26:29.461Z,9.70
2022-09-20T07:27:30.850Z,9.80
2022-09-20T07:28:34.442Z,9.80
2022-09-20T07:29:36.516Z,9.80
2022-09-20T07:30:39.129Z,9.80
2022-09-20T07:31:40.578Z,9.90
2022-09-20T07:32:42.407Z,9.90
2022-09-20T07:33:44.836Z,10.00
2022-09-20T07:34:46.269Z,10.10
2022-09-20T07:35:54.504Z,10.10
2022-09-20T07:36:59.629Z,10.20
2022-09-20T07:38:01.900Z,10.20
2022-09-20T07:39:03.883Z,10.30
2022-09-20T07:40:05.798Z,10.40
2022-09-20T07:41:07.502Z,10.40
2022-09-20T07:42:09.249Z,10.50
2022-09-20T07:43:11.121Z,10.50
2022-09-20T07:44:21.385Z,10.60
2022-09-20T07:45:23.941Z,10.70
2022-09-20T07:46:25.374Z,10.70
2022-09-20T07:47:27.655Z,10.80
2022-09-20T07:48:35.079Z,10.90
2022-09-20T07:49:37.165Z,10.90
2022-09-20T07:50:38.669Z,11.00
2022-09-20T07:51:40.125Z,11.00
2022-09-20T07:52:41.841Z,11.10
2022-09-20T07:53:43.599Z,11.20
2022-09-20T07:54:45.957Z,11.30
2022-09-20T07:56:19.505Z,11.30
2022-09-20T07:57:20.880Z,11.50
2022-09-20T07:58:22.394Z,11.50
2022-09-20T07:59:24.362Z,11.50
2022-09-20T08:00:26.690Z,11.60
2022-09-20T08:01:28.729Z,11.70
2022-09-20T08:02:30.175Z,11.70
2022-09-20T08:03:33.552Z,11.80
2022-09-20T08:04:35.151Z,11.80
2022-09-20T08:05:36.759Z,11.80
2022-09-20T08:06:41.138Z,11.90
2022-09-20T08:07:42.514Z,11.90
2022-09-20T08:08:44.728Z,12.00
2022-09-20T08:09:46.125Z,12.10
2022-09-20T08:10:48.849Z,12.10
2022-09-20T08:11:51.028Z,12.20
2022-09-20T08:14:16.077Z,12.50
2022-09-20T08:15:17.690Z,12.40
2022-09-20T08:16:20.892Z,12.60
2022-09-20T08:17:22.334Z,12.60
2022-09-20T08:18:25.339Z,12.50
2022-09-20T08:19:27.616Z,12.60
2022-09-20T08:20:29.144Z,12.60
2022-09-20T08:21:32.881Z,12.60
2022-09-20T08:22:34.852Z,12.70
2022-09-20T08:23:37.873Z,12.70
2022-09-20T08:24:39.442Z,12.70
2022-09-20T08:25:40.975Z,12.70
2022-09-20T08:26:43.629Z,12.70
2022-09-20T08:27:45.592Z,12.70
2022-09-20T08:28:49.988Z,12.60
2022-09-20T08:29:57.454Z,12.60
2022-09-20T08:31:10.101Z,12.50
2022-09-20T08:32:12.188Z,12.50
2022-09-20T08:33:13.864Z,12.40
2022-09-20T08:34:16.093Z,12.40
2022-09-20T08:35:17.706Z,12.50
2022-09-20T08:36:21.999Z,12.50
2022-09-20T08:37:23.369Z,12.50
2022-09-20T08:39:57.994Z,12.50
2022-09-20T08:41:06.673Z,12.40
2022-09-20T08:42:27.949Z,12.40
2022-09-20T08:43:35.877Z,12.40
2022-09-20T08:44:48.525Z,12.50
2022-09-20T08:45:50.187Z,12.50
2022-09-20T08:47:22.378Z,12.40
2022-09-20T08:48:32.407Z,12.50
2022-09-20T08:49:34.284Z,12.50
2022-09-20T08:50:37.678Z,12.50
2022-09-20T08:51:41.313Z,12.50
2022-09-20T08:52:47.749Z,12.50
2022-09-20T08:53:53.985Z,12.60
2022-09-20T08:54:58.054Z,12.70
2022-09-20T08:56:00.479Z,12.70
2022-09-20T08:57:14.164Z,12.90
2022-09-20T08:58:16.301Z,12.90
2022-09-20T08:59:22.558Z,12.90
2022-09-20T09:00:29.416Z,12.90
2022-09-20T09:01:32.403Z,13.00
2022-09-20T09:02:34.399Z,13.10
2022-09-20T09:03:35.940Z,13.20
2022-09-20T09:04:37.465Z,13.20
2022-09-20T09:05:46.615Z,13.20
2022-09-20T09:06:49.928Z,13.30
2022-09-20T09:07:52.081Z,13.20
2022-09-20T09:08:58.048Z,13.20
2022-09-20T09:10:00.660Z,13.30
2022-09-20T09:11:09.562Z,13.30
2022-09-20T09:12:19.336Z,13.40
2022-09-20T09:13:42.348Z,13.50
2022-09-20T09:14:52.569Z,13.50
2022-09-20T09:16:06.369Z,13.50
2022-09-20T09:17:11.585Z,13.60
2022-09-20T09:18:13.087Z,13.70
2022-09-20T09:19:33.244Z,13.70
2022-09-20T09:20:43.453Z,13.70
2022-09-20T09:21:45.051Z,13.70
2022-09-20T09:22:47.743Z,13.80
2022-09-20T09:24:16.210Z,13.70
2022-09-20T09:25:17.807Z,13.80
2022-09-20T09:26:22.548Z,13.70
2022-09-20T09:27:25.508Z,13.70
2022-09-20T09:28:31.576Z,13.70
2022-09-20T09:29:35.007Z,13.70
2022-09-20T09:30:46.848Z,13.80
2022-09-20T09:31:51.695Z,13.80
2022-09-20T09:33:13.826Z,13.80
2022-09-20T09:34:36.041Z,13.90
2022-09-20T09:35:37.588Z,13.90
2022-09-20T09:36:44.845Z,13.90
2022-09-20T09:38:01.542Z,13.90
2022-09-20T09:39:28.021Z,13.90
2022-09-20T09:40:32.172Z,13.90
2022-09-20T09:41:35.700Z,13.90
2022-09-20T09:42:37.271Z,13.90
2022-09-20T09:43:41.566Z,13.90
2022-09-20T09:44:43.052Z,14.10
2022-09-20T09:45:44.580Z,14.10
2022-09-20T09:46:46.394Z,14.20
2022-09-20T09:47:47.862Z,14.20
2022-09-20T09:49:15.409Z,14.20
2022-09-20T09:50:32.071Z,14.20
2022-09-20T09:51:34.289Z,14.20
2022-09-20T09:52:36.357Z,14.20
2022-09-20T09:53:39.045Z,14.20
2022-09-20T09:55:05.489Z,14.20
2022-09-20T09:56:28.237Z,14.20
2022-09-20T09:57:36.068Z,14.10
2022-09-20T09:59:00.395Z,14.10
2022-09-20T10:00:19.122Z,14.10
2022-09-20T10:01:33.225Z,14.10
2022-09-20T10:02:53.566Z,14.10
2022-09-20T10:04:14.992Z,14.20
2022-09-20T10:05:48.990Z,14.20
2022-09-20T10:06:59.986Z,14.20
2022-09-20T10:08:23.340Z,14.20
2022-09-20T10:09:40.723Z,14.10
2022-09-20T10:11:28.090Z,14.10
2022-09-20T10:12:30.107Z,14.10
2022-09-20T10:13:57.812Z,14.10
2022-09-20T10:15:05.088Z,14.20
2022-09-20T10:16:46.171Z,14.30
2022-09-20T10:18:11.319Z,14.30
2022-09-20T10:19:37.754Z,14.50
2022-09-20T10:20:50.201Z,14.60
2022-09-20T10:22:24.559Z,14.70
2022-09-20T10:23:51.360Z,14.60
2022-09-20T10:24:55.383Z,14.50
2022-09-20T10:26:10.506Z,14.50
2022-09-20T10:27:35.387Z,14.60
2022-09-20T10:29:03.691Z,14.70
2022-09-20T10:30:09.054Z,14.70
2022-09-20T10:31:25.673Z,14.60
2022-09-20T10:32:53.947Z,14.60
2022-09-20T10:34:14.115Z,14.70
2022-09-20T10:35:33.948Z,14.80
2022-09-20T10:36:45.506Z,15.00
2022-09-20T10:38:14.764Z,15.00
2022-09-20T10:39:26.989Z,15.10
2022-09-20T10:41:05.492Z,15.30
2022-09-20T10:42:54.708Z,15.30
2022-09-20T10:44:05.790Z,15.20
2022-09-20T10:46:03.373Z,15.20
2022-09-20T10:46:58.832Z,15.20
2022-09-20T10:48:09.627Z,15.20
2022-09-20T10:49:31.255Z,15.20
2022-09-20T10:50:44.910Z,15.30
2022-09-20T10:52:03.328Z,15.30
2022-09-20T10:53:31.668Z,15.40
2022-09-20T10:54:48.233Z,15.30
2022-09-20T10:56:08.352Z,15.40
2022-09-20T10:57:37.680Z,15.30
2022-09-20T10:59:16.411Z,15.30
2022-09-20T11:00:33.380Z,15.50
2022-09-20T11:01:45.807Z,15.40
2022-09-20T11:03:06.218Z,15.50
2022-09-20T11:04:28.829Z,15.60
2022-09-20T11:05:40.107Z,15.60
2022-09-20T11:06:48.018Z,15.60
2022-09-20T11:07:49.391Z,15.60
2022-09-20T11:08:56.296Z,15.60
2022-09-20T11:10:22.741Z,15.80
2022-09-20T11:11:31.958Z,15.80
2022-09-20T11:13:02.274Z,15.80
2022-09-20T11:14:11.233Z,15.80
2022-09-20T11:15:39.106Z,15.90
2022-09-20T11:16:48.198Z,15.90
2022-09-20T11:18:23.656Z,16.00
2022-09-20T11:19:43.868Z,16.00
2022-09-20T11:20:51.733Z,16.10
2022-09-20T11:22:00.604Z,16.10
2022-09-20T11:23:26.270Z,16.10
2022-09-20T11:24:38.349Z,16.20
2022-09-20T11:25:56.405Z,16.30
2022-09-20T11:27:02.878Z,16.40
2022-09-20T11:28:13.864Z,16.40
2022-09-20T11:29:20.806Z,16.60
2022-09-20T11:30:23.886Z,16.50
2022-09-20T11:31:39.225Z,16.60
2022-09-20T11:32:47.484Z,16.60
2022-09-20T11:33:54.514Z,16.60
2022-09-20T11:35:19.013Z,16.50
2022-09-20T11:36:52.262Z,16.40
2022-09-20T11:38:33.416Z,16.40
2022-09-20T11:40:00.794Z,16.20
2022-09-20T11:41:02.654Z,16.20
2022-09-20T11:42:06.566Z,16.10
2022-09-20T11:43:10.816Z,16.10
2022-09-20T11:44:16.331Z,16.20
2022-09-20T11:45:19.714Z,16.30
2022-09-20T11:46:31.523Z,16.20
2022-09-20T11:47:54.947Z,16.30
2022-09-20T11:49:16.502Z,16.20
2022-09-20T11:50:43.118Z,16.30
2022-09-20T11:52:10.974Z,16.30
2022-09-20T11:53:36.861Z,16.20
2022-09-20T11:55:24.568Z,16.20
2022-09-20T11:56:34.607Z,16.30
2022-09-20T11:57:36.985Z,16.20
2022-09-20T11:58:52.637Z,16.30
2022-09-20T12:00:01.635Z,16.30
2022-09-20T12:01:13.082Z,16.40
2022-09-20T12:02:23.504Z,16.50
2022-09-20T12:03:38.429Z,16.60
2022-09-20T12:04:45.951Z,16.30
2022-09-20T12:05:47.653Z,16.10
2022-09-20T12:07:04.567Z,16.10
2022-09-20T12:08:25.775Z,16.00
2022-09-20T12:09:36.355Z,16.00
2022-09-20T12:10:39.764Z,16.00
2022-09-20T12:11:42.104Z,16.00
2022-09-20T12:12:51.132Z,15.90
2022-09-20T12:13:57.255Z,15.90
2022-09-20T12:15:04.038Z,15.80
2022-09-20T12:16:15.422Z,15.90
2022-09-20T12:17:47.862Z,15.90
2022-09-20T12:18:54.989Z,15.80
2022-09-20T12:19:56.452Z,15.60
2022-09-20T12:21:02.803Z,15.60
2022-09-20T12:22:04.146Z,15.40
2022-09-20T12:23:40.349Z,15.40
2022-09-20T12:24:45.498Z,15.30
2022-09-20T12:26:00.944Z,15.30
2022-09-20T12:27:21.603Z,15.20
2022-09-20T12:28:36.938Z,15.10
2022-09-20T12:29:47.609Z,15.00
2022-09-20T12:31:18.120Z,15.00
2022-09-20T12:32:37.904Z,14.90
2022-09-20T12:34:00.112Z,15.00
2022-09-20T12:35:02.118Z,15.00
2022-09-20T12:36:15.939Z,15.00
2022-09-20T12:37:21.759Z,15.10
2022-09-20T12:38:27.561Z,15.10
2022-09-20T12:39:32.378Z,15.10
2022-09-20T12:40:33.989Z,15.20
2022-09-20T12:42:10.399Z,15.40
2022-09-20T12:43:21.729Z,15.60
2022-09-20T12:44:35.009Z,15.80
2022-09-20T12:45:37.346Z,15.90
2022-09-20T12:46:49.665Z,15.90
2022-09-20T12:47:55.800Z,15.90
2022-09-20T12:49:57.153Z,16.00
2022-09-20T12:51:35.571Z,16.10
2022-09-20T12:52:53.973Z,16.30
2022-09-20T12:54:06.587Z,16.40
2022-09-20T12:55:11.932Z,16.50
2022-09-20T12:56:20.004Z,16.60
2022-09-20T12:57:32.426Z,16.70
2022-09-20T12:58:53.470Z,16.60
2022-09-20T13:00:01.369Z,16.70
2022-09-20T13:01:03.375Z,16.70
2022-09-20T13:02:42.648Z,16.80
2022-09-20T13:03:49.591Z,17.00
2022-09-20T13:04:56.917Z,17.20
2022-09-20T13:06:07.397Z,17.30
2022-09-20T13:07:43.521Z,17.40
2022-09-20T13:09:02.403Z,17.30
2022-09-20T13:10:25.225Z,17.30
2022-09-20T13:11:27.389Z,17.20
2022-09-20T13:12:29.776Z,17.20
2022-09-20T13:13:36.722Z,17.30
2022-09-20T13:14:40.414Z,17.30
2022-09-20T13:15:49.446Z,17.40
2022-09-20T13:17:01.349Z,17.40
2022-09-20T13:18:03.163Z,17.50
2022-09-20T13:19:07.385Z,17.50
2022-09-20T13:20:19.439Z,17.60
2022-09-20T13:21:21.011Z,17.60
2022-09-20T13:22:34.902Z,17.70
2022-09-20T13:23:47.114Z,17.80
2022-09-20T13:24:52.160Z,17.90
2022-09-20T13:25:58.028Z,18.00
2022-09-20T13:27:08.767Z,18.00
2022-09-20T13:28:27.285Z,17.90
2022-09-20T13:29:42.826Z,17.90
2022-09-20T13:30:44.333Z,18.00
2022-09-20T13:31:45.822Z,18.00
2022-09-20T13:32:48.535Z,18.10
2022-09-20T13:33:50.262Z,18.00
2022-09-20T13:35:11.068Z,17.90
2022-09-20T13:36:13.503Z,17.70
2022-09-20T13:37:21.754Z,17.60
2022-09-20T13:38:27.177Z,17.70
2022-09-20T13:39:36.219Z,17.60
2022-09-20T13:40:42.281Z,17.70
2022-09-20T13:41:44.060Z,17.70
2022-09-20T13:42:47.791Z,17.60
2022-09-20T13:43:50.670Z,17.80
2022-09-20T13:44:52.395Z,17.70
2022-09-20T13:46:17.288Z,17.90
2022-09-20T13:47:28.372Z,18.00
2022-09-20T13:48:30.372Z,18.00
2022-09-20T13:49:32.763Z,18.20
2022-09-20T13:50:39.239Z,18.20
2022-09-20T13:51:42.807Z,18.20
2022-09-20T13:52:46.851Z,18.10
2022-09-20T13:53:49.147Z,17.90
2022-09-20T13:54:50.614Z,17.80
2022-09-20T13:55:54.604Z,17.80
2022-09-20T13:57:00.435Z,17.90
2022-09-20T13:58:08.397Z,17.90
2022-09-20T13:59:19.208Z,17.80
2022-09-20T14:00:21.104Z,17.90
2022-09-20T14:01:35.314Z,17.80
2022-09-20T14:02:39.775Z,17.80
2022-09-20T14:03:44.774Z,17.80
2022-09-20T14:04:46.885Z,17.80
2022-09-20T14:05:51.913Z,17.80
2022-09-20T14:06:56.302Z,17.90
2022-09-20T14:08:00.473Z,17.90
2022-09-20T14:09:10.433Z,17.80
2022-09-20T14:10:42.897Z,18.00
2022-09-20T14:11:45.618Z,17.90
2022-09-20T14:12:49.192Z,17.90
2022-09-20T14:13:54.172Z,17.90
2022-09-20T14:14:56.425Z,17.90
2022-09-20T14:15:58.761Z,17.70
2022-09-20T14:17:04.672Z,17.70
2022-09-20T14:18:09.082Z,17.70
2022-09-20T14:19:16.909Z,17.50
2022-09-20T14:20:19.221Z,17.50
2022-09-20T14:21:24.311Z,17.60
2022-09-20T14:22:28.845Z,17.70
2022-09-20T14:23:30.562Z,17.70
2022-09-20T14:25:00.223Z,17.70
2022-09-20T14:26:17.345Z,17.70
2022-09-20T14:27:21.407Z,17.70
2022-09-20T14:28:28.876Z,17.80
2022-09-20T14:29:45.404Z,17.80
2022-09-20T14:30:48.288Z,17.80
2022-09-20T14:31:49.856Z,17.90
2022-09-20T14:32:54.967Z,17.80
2022-09-20T14:34:00.071Z,17.90
2022-09-20T14:35:04.977Z,18.10
2022-09-20T14:36:16.105Z,18.30
2022-09-20T14:37:28.699Z,18.60
2022-09-20T14:38:30.320Z,18.90
2022-09-20T14:39:33.299Z,19.10
2022-09-20T14:40:48.864Z,19.40
2022-09-20T14:41:50.794Z,19.60
2022-09-20T14:42:57.933Z,19.70
2022-09-20T14:44:02.411Z,19.80
2022-09-20T14:45:05.875Z,19.90
2022-09-20T14:46:16.468Z,19.60
2022-09-20T14:47:26.873Z,19.20
2022-09-20T14:48:37.191Z,19.10
2022-09-20T14:49:43.383Z,18.80
2022-09-20T14:50:46.976Z,18.50
2022-09-20T14:51:49.356Z,18.40
2022-09-20T14:53:18.645Z,18.30
2022-09-20T14:54:33.265Z,18.20
2022-09-20T14:55:37.647Z,18.30
2022-09-20T14:56:50.098Z,18.30
2022-09-20T14:57:53.248Z,18.30
2022-09-20T14:59:27.243Z,18.40
2022-09-20T15:00:30.180Z,18.20
2022-09-20T15:01:32.430Z,18.10
2022-09-20T15:02:36.170Z,18.10
2022-09-20T15:03:42.391Z,18.10
2022-09-20T15:04:59.167Z,18.10
2022-09-20T15:06:04.206Z,18.00
2022-09-20T15:07:08.620Z,17.80
2022-09-20T15:08:15.610Z,17.70
2022-09-20T15:09:19.314Z,17.60
2022-09-20T15:10:22.321Z,17.60
2022-09-20T15:11:23.771Z,17.60
2022-09-20T15:12:26.543Z,17.50
2022-09-20T15:13:27.954Z,17.40
2022-09-20T15:14:31.845Z,17.30
2022-09-20T15:15:38.294Z,17.30
2022-09-20T15:16:40.013Z,17.10
2022-09-20T15:17:42.662Z,17.10
2022-09-20T15:18:44.839Z,17.00
2022-09-20T15:19:48.160Z,16.90
2022-09-20T15:20:52.094Z,16.90
2022-09-20T15:21:53.706Z,16.90
2022-09-20T15:22:56.406Z,16.80
2022-09-20T15:23:57.871Z,16.70
2022-09-20T15:24:59.451Z,16.70
2022-09-20T15:26:00.935Z,16.70
2022-09-20T15:27:02.353Z,16.60
2022-09-20T15:28:04.276Z,16.60
2022-09-20T15:29:06.081Z,16.60
2022-09-20T15:30:10.096Z,16.50
2022-09-20T15:31:13.896Z,16.50
2022-09-20T15:32:15.599Z,16.20
2022-09-20T15:33:18.392Z,16.20
2022-09-20T15:34:19.872Z,16.00
2022-09-20T15:35:21.270Z,15.90
2022-09-20T15:36:22.752Z,16.00
2022-09-20T15:37:24.620Z,15.90
2022-09-20T15:38:27.152Z,15.90
2022-09-20T15:39:28.599Z,15.80
2022-09-20T15:40:30.585Z,15.80
2022-09-20T15:41:32.295Z,15.70
2022-09-20T15:42:38.227Z,15.60
2022-09-20T15:43:43.239Z,15.70
2022-09-20T15:44:45.251Z,15.60
2022-09-20T15:45:56.694Z,15.60
2022-09-20T15:46:58.288Z,15.60
2022-09-20T15:47:59.749Z,15.50
2022-09-20T15:49:03.215Z,15.50
2022-09-20T15:50:08.339Z,15.50